sensor_id;sensor_type;location;lat;lon;timestamp;P1;durP1;ratioP1;P2;durP2;ratioP2
30380;SDS011;17169;50.966;11.038;2022-08-01T00:02:11;4.68;;;2.85;;
30380;SDS011;17169;50.966;11.038;2022-08-01T00:05:15;13.07;;;2.47;;
30380;SDS011;17169;50.966;11.038;2022-08-01T00:08:17;4.28;;;2.45;;
30380;SDS011;17169;50.966;11.038;2022-08-01T00:11:20;4.63;;;2.47;;
30380;SDS011;17169;50.966;11.038;2022-08-01T00:14:23;3.53;;;2.10;;
30380;SDS011;17169;50.966;11.038;2022-08-01T00:17:25;4.72;;;2.30;;
30380;SDS011;17169;50.966;11.038;2022-08-01T00:20:29;4.50;;;2.22;;
30380;SDS011;17169;50.966;11.038;2022-08-01T00:23:31;3.88;;;2.30;;
30380;SDS011;17169;50.966;11.038;2022-08-01T00:26:34;3.10;;;2.05;;
30380;SDS011;17169;50.966;11.038;2022-08-01T00:29:36;3.63;;;2.00;;
30380;SDS011;17169;50.966;11.038;2022-08-01T00:32:39;3.42;;;1.92;;
30380;SDS011;17169;50.966;11.038;2022-08-01T00:35:42;2.90;;;1.80;;
30380;SDS011;17169;50.966;11.038;2022-08-01T00:38:45;3.95;;;1.88;;
30380;SDS011;17169;50.966;11.038;2022-08-01T00:41:47;3.47;;;2.03;;
30380;SDS011;17169;50.966;11.038;2022-08-01T00:44:50;4.93;;;1.98;;
30380;SDS011;17169;50.966;11.038;2022-08-01T00:47:52;5.30;;;2.13;;
30380;SDS011;17169;50.966;11.038;2022-08-01T00:50:56;4.75;;;2.13;;
30380;SDS011;17169;50.966;11.038;2022-08-01T00:53:58;5.30;;;2.00;;
30380;SDS011;17169;50.966;11.038;2022-08-01T00:57:01;3.30;;;1.77;;
30380;SDS011;17169;50.966;11.038;2022-08-01T01:00:05;4.25;;;1.88;;
30380;SDS011;17169;50.966;11.038;2022-08-01T01:03:09;7.45;;;2.10;;
30380;SDS011;17169;50.966;11.038;2022-08-01T01:06:14;3.42;;;1.90;;
30380;SDS011;17169;50.966;11.038;2022-08-01T01:09:30;2.63;;;1.80;;
30380;SDS011;17169;50.966;11.038;2022-08-01T01:12:38;7.82;;;2.08;;
30380;SDS011;17169;50.966;11.038;2022-08-01T01:15:49;4.88;;;1.90;;
30380;SDS011;17169;50.966;11.038;2022-08-01T01:19:00;6.15;;;2.20;;
30380;SDS011;17169;50.966;11.038;2022-08-01T01:22:18;2.60;;;1.83;;
30380;SDS011;17169;50.966;11.038;2022-08-01T01:25:31;3.78;;;1.65;;
30380;SDS011;17169;50.966;11.038;2022-08-01T01:28:51;3.08;;;1.70;;
30380;SDS011;17169;50.966;11.038;2022-08-01T01:32:02;3.50;;;2.05;;
30380;SDS011;17169;50.966;11.038;2022-08-01T01:35:09;3.97;;;1.90;;
30380;SDS011;17169;50.966;11.038;2022-08-01T01:38:17;4.47;;;1.73;;
30380;SDS011;17169;50.966;11.038;2022-08-01T01:41:22;4.03;;;2.10;;
30380;SDS011;17169;50.966;11.038;2022-08-01T01:44:27;2.40;;;1.50;;
30380;SDS011;17169;50.966;11.038;2022-08-01T01:47:30;4.80;;;1.95;;
30380;SDS011;17169;50.966;11.038;2022-08-01T01:50:34;2.90;;;1.90;;
30380;SDS011;17169;50.966;11.038;2022-08-01T01:53:37;7.20;;;1.88;;
30380;SDS011;17169;50.966;11.038;2022-08-01T01:56:41;4.68;;;1.83;;
30380;SDS011;17169;50.966;11.038;2022-08-01T01:59:51;3.67;;;1.90;;
30380;SDS011;17169;50.966;11.038;2022-08-01T02:05:58;4.03;;;1.85;;
30380;SDS011;17169;50.966;11.038;2022-08-01T02:09:02;2.75;;;1.77;;
30380;SDS011;17169;50.966;11.038;2022-08-01T02:12:05;3.83;;;2.15;;
30380;SDS011;17169;50.966;11.038;2022-08-01T02:15:13;3.28;;;1.60;;
30380;SDS011;17169;50.966;11.038;2022-08-01T02:18:16;3.13;;;2.13;;
30380;SDS011;17169;50.966;11.038;2022-08-01T02:21:20;2.40;;;1.67;;
30380;SDS011;17169;50.966;11.038;2022-08-01T02:24:28;6.45;;;1.60;;
30380;SDS011;17169;50.966;11.038;2022-08-01T02:27:40;2.75;;;1.88;;
30380;SDS011;17169;50.966;11.038;2022-08-01T02:30:47;4.03;;;1.60;;
30380;SDS011;17169;50.966;11.038;2022-08-01T02:33:54;2.88;;;2.00;;
30380;SDS011;17169;50.966;11.038;2022-08-01T02:37:00;11.38;;;7.03;;
30380;SDS011;17169;50.966;11.038;2022-08-01T02:40:05;5.45;;;3.30;;
30380;SDS011;17169;50.966;11.038;2022-08-01T02:43:10;5.22;;;2.42;;
30380;SDS011;17169;50.966;11.038;2022-08-01T02:46:19;5.78;;;1.85;;
30380;SDS011;17169;50.966;11.038;2022-08-01T02:49:25;3.03;;;1.83;;
30380;SDS011;17169;50.966;11.038;2022-08-01T02:52:30;3.50;;;1.70;;
30380;SDS011;17169;50.966;11.038;2022-08-01T02:55:34;2.95;;;1.85;;
30380;SDS011;17169;50.966;11.038;2022-08-01T02:58:38;2.72;;;1.67;;
30380;SDS011;17169;50.966;11.038;2022-08-01T03:01:44;3.45;;;2.00;;
30380;SDS011;17169;50.966;11.038;2022-08-01T03:04:47;4.13;;;1.83;;
30380;SDS011;17169;50.966;11.038;2022-08-01T03:07:52;5.07;;;2.03;;
30380;SDS011;17169;50.966;11.038;2022-08-01T03:10:58;3.05;;;1.90;;
30380;SDS011;17169;50.966;11.038;2022-08-01T03:14:04;3.33;;;1.92;;
30380;SDS011;17169;50.966;11.038;2022-08-01T03:17:10;7.40;;;2.88;;
30380;SDS011;17169;50.966;11.038;2022-08-01T03:20:14;3.20;;;2.30;;
30380;SDS011;17169;50.966;11.038;2022-08-01T03:23:18;3.72;;;2.38;;
30380;SDS011;17169;50.966;11.038;2022-08-01T03:26:23;4.35;;;2.13;;
30380;SDS011;17169;50.966;11.038;2022-08-01T03:29:29;3.63;;;1.75;;
30380;SDS011;17169;50.966;11.038;2022-08-01T03:32:34;4.57;;;1.92;;
30380;SDS011;17169;50.966;11.038;2022-08-01T03:35:37;4.28;;;2.28;;
30380;SDS011;17169;50.966;11.038;2022-08-01T03:38:44;4.30;;;2.30;;
30380;SDS011;17169;50.966;11.038;2022-08-01T03:41:50;4.90;;;2.40;;
30380;SDS011;17169;50.966;11.038;2022-08-01T03:45:08;6.35;;;2.25;;
30380;SDS011;17169;50.966;11.038;2022-08-01T03:48:19;3.95;;;2.13;;
30380;SDS011;17169;50.966;11.038;2022-08-01T03:51:26;4.47;;;2.55;;
30380;SDS011;17169;50.966;11.038;2022-08-01T03:54:31;3.95;;;2.10;;
30380;SDS011;17169;50.966;11.038;2022-08-01T03:57:37;3.15;;;2.20;;
30380;SDS011;17169;50.966;11.038;2022-08-01T04:00:40;3.97;;;2.03;;
30380;SDS011;17169;50.966;11.038;2022-08-01T04:03:44;3.67;;;2.25;;
30380;SDS011;17169;50.966;11.038;2022-08-01T04:06:47;3.17;;;1.98;;
30380;SDS011;17169;50.966;11.038;2022-08-01T04:09:51;5.70;;;2.83;;
30380;SDS011;17169;50.966;11.038;2022-08-01T04:12:54;4.15;;;2.10;;
30380;SDS011;17169;50.966;11.038;2022-08-01T04:15:57;4.22;;;2.10;;
30380;SDS011;17169;50.966;11.038;2022-08-01T04:19:00;7.80;;;2.17;;
30380;SDS011;17169;50.966;11.038;2022-08-01T04:22:04;4.75;;;2.75;;
30380;SDS011;17169;50.966;11.038;2022-08-01T04:25:09;3.13;;;2.20;;
30380;SDS011;17169;50.966;11.038;2022-08-01T04:28:14;2.70;;;1.80;;
30380;SDS011;17169;50.966;11.038;2022-08-01T04:31:21;4.47;;;2.33;;
30380;SDS011;17169;50.966;11.038;2022-08-01T04:34:28;4.20;;;2.20;;
30380;SDS011;17169;50.966;11.038;2022-08-01T04:37:33;2.72;;;1.98;;
30380;SDS011;17169;50.966;11.038;2022-08-01T04:40:38;3.78;;;2.45;;
30380;SDS011;17169;50.966;11.038;2022-08-01T04:43:42;4.68;;;2.72;;
30380;SDS011;17169;50.966;11.038;2022-08-01T04:46:45;3.95;;;2.20;;
30380;SDS011;17169;50.966;11.038;2022-08-01T04:49:50;3.17;;;2.00;;
30380;SDS011;17169;50.966;11.038;2022-08-01T04:52:53;4.00;;;2.07;;
30380;SDS011;17169;50.966;11.038;2022-08-01T04:55:56;3.30;;;2.00;;
30380;SDS011;17169;50.966;11.038;2022-08-01T04:58:58;3.10;;;2.03;;
30380;SDS011;17169;50.966;11.038;2022-08-01T05:02:18;3.75;;;2.10;;
30380;SDS011;17169;50.966;11.038;2022-08-01T05:05:22;7.45;;;2.58;;
30380;SDS011;17169;50.966;11.038;2022-08-01T05:08:26;2.97;;;2.00;;
30380;SDS011;17169;50.966;11.038;2022-08-01T05:11:29;6.43;;;2.00;;
30380;SDS011;17169;50.966;11.038;2022-08-01T05:14:31;3.10;;;1.92;;
30380;SDS011;17169;50.966;11.038;2022-08-01T05:17:34;4.40;;;1.90;;
30380;SDS011;17169;50.966;11.038;2022-08-01T05:20:38;3.40;;;1.73;;
30380;SDS011;17169;50.966;11.038;2022-08-01T05:23:42;5.80;;;1.77;;
30380;SDS011;17169;50.966;11.038;2022-08-01T05:26:44;2.45;;;1.70;;
30380;SDS011;17169;50.966;11.038;2022-08-01T05:29:46;2.97;;;2.03;;
30380;SDS011;17169;50.966;11.038;2022-08-01T05:32:49;2.50;;;1.70;;
30380;SDS011;17169;50.966;11.038;2022-08-01T05:35:53;3.17;;;1.83;;
30380;SDS011;17169;50.966;11.038;2022-08-01T05:38:55;4.70;;;1.80;;
30380;SDS011;17169;50.966;11.038;2022-08-01T05:41:57;2.70;;;1.52;;
30380;SDS011;17169;50.966;11.038;2022-08-01T05:45:00;5.75;;;1.60;;
30380;SDS011;17169;50.966;11.038;2022-08-01T05:48:02;2.47;;;1.80;;
30380;SDS011;17169;50.966;11.038;2022-08-01T05:51:06;4.03;;;1.75;;
30380;SDS011;17169;50.966;11.038;2022-08-01T05:54:09;3.78;;;1.98;;
30380;SDS011;17169;50.966;11.038;2022-08-01T05:57:11;4.63;;;1.90;;
30380;SDS011;17169;50.966;11.038;2022-08-01T06:00:14;2.58;;;1.70;;
30380;SDS011;17169;50.966;11.038;2022-08-01T06:03:16;2.72;;;1.70;;
30380;SDS011;17169;50.966;11.038;2022-08-01T06:06:20;4.10;;;1.75;;
30380;SDS011;17169;50.966;11.038;2022-08-01T06:09:22;2.65;;;1.80;;
30380;SDS011;17169;50.966;11.038;2022-08-01T06:12:25;3.50;;;1.77;;
30380;SDS011;17169;50.966;11.038;2022-08-01T06:15:28;3.72;;;1.75;;
30380;SDS011;17169;50.966;11.038;2022-08-01T06:18:30;3.20;;;1.55;;
30380;SDS011;17169;50.966;11.038;2022-08-01T06:21:34;3.65;;;1.77;;
30380;SDS011;17169;50.966;11.038;2022-08-01T06:24:36;3.67;;;1.80;;
30380;SDS011;17169;50.966;11.038;2022-08-01T06:27:39;3.35;;;1.90;;
30380;SDS011;17169;50.966;11.038;2022-08-01T06:30:41;5.57;;;1.92;;
30380;SDS011;17169;50.966;11.038;2022-08-01T06:33:44;3.53;;;2.00;;
30380;SDS011;17169;50.966;11.038;2022-08-01T06:36:48;4.65;;;2.08;;
30380;SDS011;17169;50.966;11.038;2022-08-01T06:39:50;2.95;;;1.83;;
30380;SDS011;17169;50.966;11.038;2022-08-01T06:42:53;2.90;;;1.70;;
30380;SDS011;17169;50.966;11.038;2022-08-01T06:45:55;2.67;;;1.40;;
30380;SDS011;17169;50.966;11.038;2022-08-01T06:48:58;2.13;;;1.17;;
30380;SDS011;17169;50.966;11.038;2022-08-01T06:52:02;2.17;;;1.25;;
30380;SDS011;17169;50.966;11.038;2022-08-01T06:55:05;3.23;;;1.20;;
30380;SDS011;17169;50.966;11.038;2022-08-01T06:58:08;4.10;;;1.60;;
30380;SDS011;17169;50.966;11.038;2022-08-01T07:01:10;4.88;;;2.00;;
30380;SDS011;17169;50.966;11.038;2022-08-01T07:04:13;3.88;;;1.95;;
30380;SDS011;17169;50.966;11.038;2022-08-01T07:07:17;8.57;;;2.65;;
30380;SDS011;17169;50.966;11.038;2022-08-01T07:10:19;9.63;;;1.73;;
30380;SDS011;17169;50.966;11.038;2022-08-01T07:13:22;2.42;;;1.10;;
30380;SDS011;17169;50.966;11.038;2022-08-01T07:16:25;4.35;;;1.15;;
30380;SDS011;17169;50.966;11.038;2022-08-01T07:19:27;4.13;;;1.30;;
30380;SDS011;17169;50.966;11.038;2022-08-01T07:22:31;7.50;;;1.60;;
30380;SDS011;17169;50.966;11.038;2022-08-01T07:25:34;9.00;;;1.75;;
30380;SDS011;17169;50.966;11.038;2022-08-01T07:28:36;4.53;;;2.15;;
30380;SDS011;17169;50.966;11.038;2022-08-01T07:31:38;3.42;;;1.48;;
30380;SDS011;17169;50.966;11.038;2022-08-01T07:34:41;2.35;;;1.38;;
30380;SDS011;17169;50.966;11.038;2022-08-01T07:37:45;2.72;;;1.48;;
30380;SDS011;17169;50.966;11.038;2022-08-01T07:40:47;3.85;;;1.80;;
30380;SDS011;17169;50.966;11.038;2022-08-01T07:43:50;2.72;;;1.40;;
30380;SDS011;17169;50.966;11.038;2022-08-01T07:46:52;4.68;;;1.80;;
30380;SDS011;17169;50.966;11.038;2022-08-01T07:49:58;6.28;;;1.40;;
30380;SDS011;17169;50.966;11.038;2022-08-01T07:53:03;3.42;;;1.38;;
30380;SDS011;17169;50.966;11.038;2022-08-01T07:56:05;3.13;;;1.35;;
30380;SDS011;17169;50.966;11.038;2022-08-01T07:59:07;4.80;;;1.45;;
30380;SDS011;17169;50.966;11.038;2022-08-01T08:02:18;3.10;;;1.70;;
30380;SDS011;17169;50.966;11.038;2022-08-01T08:05:20;4.18;;;1.65;;
30380;SDS011;17169;50.966;11.038;2022-08-01T08:08:23;2.30;;;1.40;;
30380;SDS011;17169;50.966;11.038;2022-08-01T08:11:25;2.13;;;1.20;;
30380;SDS011;17169;50.966;11.038;2022-08-01T08:14:28;3.47;;;1.00;;
30380;SDS011;17169;50.966;11.038;2022-08-01T08:17:31;7.47;;;1.10;;
30380;SDS011;17169;50.966;11.038;2022-08-01T08:20:34;2.92;;;1.30;;
30380;SDS011;17169;50.966;11.038;2022-08-01T08:23:36;1.02;;;0.85;;
30380;SDS011;17169;50.966;11.038;2022-08-01T08:26:56;2.50;;;0.88;;
30380;SDS011;17169;50.966;11.038;2022-08-01T08:30:00;4.55;;;1.42;;
30380;SDS011;17169;50.966;11.038;2022-08-01T08:33:04;3.88;;;1.17;;
30380;SDS011;17169;50.966;11.038;2022-08-01T08:36:06;5.18;;;1.33;;
30380;SDS011;17169;50.966;11.038;2022-08-01T08:39:09;5.03;;;1.38;;
30380;SDS011;17169;50.966;11.038;2022-08-01T08:42:11;2.58;;;1.10;;
30380;SDS011;17169;50.966;11.038;2022-08-01T08:45:14;2.60;;;0.90;;
30380;SDS011;17169;50.966;11.038;2022-08-01T08:48:17;1.42;;;0.82;;
30380;SDS011;17169;50.966;11.038;2022-08-01T08:51:20;1.92;;;1.23;;
30380;SDS011;17169;50.966;11.038;2022-08-01T08:54:25;1.60;;;0.82;;
30380;SDS011;17169;50.966;11.038;2022-08-01T08:57:28;2.10;;;0.98;;
30380;SDS011;17169;50.966;11.038;2022-08-01T09:00:31;2.17;;;0.90;;
30380;SDS011;17169;50.966;11.038;2022-08-01T09:03:37;1.38;;;0.75;;
30380;SDS011;17169;50.966;11.038;2022-08-01T09:06:40;1.37;;;0.70;;
30380;SDS011;17169;50.966;11.038;2022-08-01T09:09:43;3.10;;;0.77;;
30380;SDS011;17169;50.966;11.038;2022-08-01T09:13:05;4.15;;;0.85;;
30380;SDS011;17169;50.966;11.038;2022-08-01T09:16:15;1.65;;;0.80;;
30380;SDS011;17169;50.966;11.038;2022-08-01T09:19:20;2.42;;;0.68;;
30380;SDS011;17169;50.966;11.038;2022-08-01T09:22:23;1.35;;;0.70;;
30380;SDS011;17169;50.966;11.038;2022-08-01T09:25:26;1.05;;;0.60;;
30380;SDS011;17169;50.966;11.038;2022-08-01T09:28:33;2.28;;;0.68;;
30380;SDS011;17169;50.966;11.038;2022-08-01T09:31:44;1.13;;;0.60;;
30380;SDS011;17169;50.966;11.038;2022-08-01T09:34:48;7.55;;;1.00;;
30380;SDS011;17169;50.966;11.038;2022-08-01T09:37:51;1.50;;;0.70;;
30380;SDS011;17169;50.966;11.038;2022-08-01T09:40:54;4.68;;;0.70;;
30380;SDS011;17169;50.966;11.038;2022-08-01T09:43:57;0.82;;;0.57;;
30380;SDS011;17169;50.966;11.038;2022-08-01T09:46:59;2.03;;;0.80;;
30380;SDS011;17169;50.966;11.038;2022-08-01T09:50:04;1.17;;;0.55;;
30380;SDS011;17169;50.966;11.038;2022-08-01T09:53:07;1.13;;;0.70;;
30380;SDS011;17169;50.966;11.038;2022-08-01T09:56:10;2.08;;;0.80;;
30380;SDS011;17169;50.966;11.038;2022-08-01T09:59:13;2.25;;;1.30;;
30380;SDS011;17169;50.966;11.038;2022-08-01T10:02:26;0.85;;;0.60;;
30380;SDS011;17169;50.966;11.038;2022-08-01T10:05:33;2.13;;;0.60;;
30380;SDS011;17169;50.966;11.038;2022-08-01T10:08:45;2.22;;;0.80;;
30380;SDS011;17169;50.966;11.038;2022-08-01T10:11:47;4.50;;;0.70;;
30380;SDS011;17169;50.966;11.038;2022-08-01T10:14:50;0.68;;;0.60;;
30380;SDS011;17169;50.966;11.038;2022-08-01T10:17:56;1.50;;;0.77;;
30380;SDS011;17169;50.966;11.038;2022-08-01T10:21:01;1.10;;;0.65;;
30380;SDS011;17169;50.966;11.038;2022-08-01T10:24:05;1.98;;;1.20;;
30380;SDS011;17169;50.966;11.038;2022-08-01T10:27:11;3.00;;;0.80;;
30380;SDS011;17169;50.966;11.038;2022-08-01T10:30:16;2.22;;;0.88;;
30380;SDS011;17169;50.966;11.038;2022-08-01T10:33:21;1.38;;;0.80;;
30380;SDS011;17169;50.966;11.038;2022-08-01T10:39:28;2.55;;;0.98;;
30380;SDS011;17169;50.966;11.038;2022-08-01T10:42:31;3.72;;;1.75;;
30380;SDS011;17169;50.966;11.038;2022-08-01T10:45:36;2.78;;;0.90;;
30380;SDS011;17169;50.966;11.038;2022-08-01T10:48:40;1.75;;;0.85;;
30380;SDS011;17169;50.966;11.038;2022-08-01T10:51:48;1.60;;;0.90;;
30380;SDS011;17169;50.966;11.038;2022-08-01T10:55:00;2.10;;;0.90;;
30380;SDS011;17169;50.966;11.038;2022-08-01T10:58:04;2.03;;;1.08;;
30380;SDS011;17169;50.966;11.038;2022-08-01T11:01:13;2.88;;;1.60;;
30380;SDS011;17169;50.966;11.038;2022-08-01T11:04:21;2.78;;;0.88;;
30380;SDS011;17169;50.966;11.038;2022-08-01T11:07:38;2.35;;;0.82;;
30380;SDS011;17169;50.966;11.038;2022-08-01T11:10:46;1.33;;;0.80;;
30380;SDS011;17169;50.966;11.038;2022-08-01T11:17:32;5.40;;;0.98;;
30380;SDS011;17169;50.966;11.038;2022-08-01T11:20:35;2.28;;;1.00;;
30380;SDS011;17169;50.966;11.038;2022-08-01T11:23:46;1.13;;;0.60;;
30380;SDS011;17169;50.966;11.038;2022-08-01T11:30:24;0.65;;;0.50;;
30380;SDS011;17169;50.966;11.038;2022-08-01T11:36:50;1.42;;;0.70;;
30380;SDS011;17169;50.966;11.038;2022-08-01T11:40:31;1.73;;;0.65;;
30380;SDS011;17169;50.966;11.038;2022-08-01T11:43:34;2.15;;;0.80;;
30380;SDS011;17169;50.966;11.038;2022-08-01T11:46:55;3.97;;;0.55;;
30380;SDS011;17169;50.966;11.038;2022-08-01T11:50:00;3.47;;;0.70;;
30380;SDS011;17169;50.966;11.038;2022-08-01T11:53:03;0.70;;;0.40;;
30380;SDS011;17169;50.966;11.038;2022-08-01T11:56:09;1.27;;;0.70;;
30380;SDS011;17169;50.966;11.038;2022-08-01T11:59:12;1.67;;;0.70;;
30380;SDS011;17169;50.966;11.038;2022-08-01T12:02:16;2.75;;;0.70;;
30380;SDS011;17169;50.966;11.038;2022-08-01T12:05:19;0.67;;;0.50;;
30380;SDS011;17169;50.966;11.038;2022-08-01T12:08:25;1.75;;;0.55;;
30380;SDS011;17169;50.966;11.038;2022-08-01T12:11:29;2.78;;;0.52;;
30380;SDS011;17169;50.966;11.038;2022-08-01T12:14:32;0.63;;;0.50;;
30380;SDS011;17169;50.966;11.038;2022-08-01T12:17:35;1.27;;;0.50;;
30380;SDS011;17169;50.966;11.038;2022-08-01T12:20:40;0.60;;;0.50;;
30380;SDS011;17169;50.966;11.038;2022-08-01T12:23:44;5.20;;;0.65;;
30380;SDS011;17169;50.966;11.038;2022-08-01T12:26:48;1.20;;;0.40;;
30380;SDS011;17169;50.966;11.038;2022-08-01T12:29:50;0.93;;;0.70;;
30380;SDS011;17169;50.966;11.038;2022-08-01T12:32:53;1.48;;;0.70;;
30380;SDS011;17169;50.966;11.038;2022-08-01T12:35:56;2.83;;;0.60;;
30380;SDS011;17169;50.966;11.038;2022-08-01T12:38:59;6.65;;;0.80;;
30380;SDS011;17169;50.966;11.038;2022-08-01T12:42:06;2.58;;;0.88;;
30380;SDS011;17169;50.966;11.038;2022-08-01T12:45:13;0.80;;;0.50;;
30380;SDS011;17169;50.966;11.038;2022-08-01T12:48:17;3.17;;;0.60;;
30380;SDS011;17169;50.966;11.038;2022-08-01T12:51:20;1.05;;;0.70;;
30380;SDS011;17169;50.966;11.038;2022-08-01T12:54:23;2.45;;;0.70;;
30380;SDS011;17169;50.966;11.038;2022-08-01T12:57:27;0.65;;;0.50;;
30380;SDS011;17169;50.966;11.038;2022-08-01T13:00:30;1.73;;;0.70;;
30380;SDS011;17169;50.966;11.038;2022-08-01T13:03:33;1.30;;;0.77;;
30380;SDS011;17169;50.966;11.038;2022-08-01T13:06:36;0.95;;;0.70;;
30380;SDS011;17169;50.966;11.038;2022-08-01T13:09:48;0.60;;;0.60;;
30380;SDS011;17169;50.966;11.038;2022-08-01T13:12:52;3.65;;;0.70;;
30380;SDS011;17169;50.966;11.038;2022-08-01T13:16:03;0.63;;;0.60;;
30380;SDS011;17169;50.966;11.038;2022-08-01T13:19:07;2.40;;;0.73;;
30380;SDS011;17169;50.966;11.038;2022-08-01T13:22:10;0.73;;;0.50;;
30380;SDS011;17169;50.966;11.038;2022-08-01T13:25:13;5.60;;;0.60;;
30380;SDS011;17169;50.966;11.038;2022-08-01T13:28:19;2.60;;;1.15;;
30380;SDS011;17169;50.966;11.038;2022-08-01T13:31:23;0.90;;;0.50;;
30380;SDS011;17169;50.966;11.038;2022-08-01T13:34:34;7.32;;;1.83;;
30380;SDS011;17169;50.966;11.038;2022-08-01T13:37:38;1.08;;;0.70;;
30380;SDS011;17169;50.966;11.038;2022-08-01T13:40:42;3.15;;;0.73;;
30380;SDS011;17169;50.966;11.038;2022-08-01T13:43:45;2.55;;;0.70;;
30380;SDS011;17169;50.966;11.038;2022-08-01T13:46:48;10.63;;;0.90;;
30380;SDS011;17169;50.966;11.038;2022-08-01T13:49:50;2.33;;;0.75;;
30380;SDS011;17169;50.966;11.038;2022-08-01T13:52:53;3.10;;;0.90;;
30380;SDS011;17169;50.966;11.038;2022-08-01T13:55:55;2.83;;;0.90;;
30380;SDS011;17169;50.966;11.038;2022-08-01T13:58:59;0.73;;;0.60;;
30380;SDS011;17169;50.966;11.038;2022-08-01T14:02:01;0.80;;;0.70;;
30380;SDS011;17169;50.966;11.038;2022-08-01T14:05:04;0.95;;;0.60;;
30380;SDS011;17169;50.966;11.038;2022-08-01T14:08:08;1.50;;;0.80;;
30380;SDS011;17169;50.966;11.038;2022-08-01T14:11:11;2.05;;;0.95;;
30380;SDS011;17169;50.966;11.038;2022-08-01T14:14:15;1.95;;;0.70;;
30380;SDS011;17169;50.966;11.038;2022-08-01T14:17:17;1.77;;;1.05;;
30380;SDS011;17169;50.966;11.038;2022-08-01T14:20:20;1.42;;;0.90;;
30380;SDS011;17169;50.966;11.038;2022-08-01T14:23:22;3.20;;;0.60;;
30380;SDS011;17169;50.966;11.038;2022-08-01T14:26:25;5.47;;;0.80;;
30380;SDS011;17169;50.966;11.038;2022-08-01T14:29:28;0.82;;;0.60;;
30380;SDS011;17169;50.966;11.038;2022-08-01T14:35:33;0.70;;;0.70;;
30380;SDS011;17169;50.966;11.038;2022-08-01T14:38:36;2.38;;;0.80;;
30380;SDS011;17169;50.966;11.038;2022-08-01T14:41:38;2.47;;;0.90;;
30380;SDS011;17169;50.966;11.038;2022-08-01T14:44:42;1.02;;;0.80;;
30380;SDS011;17169;50.966;11.038;2022-08-01T14:47:44;0.80;;;0.80;;
30380;SDS011;17169;50.966;11.038;2022-08-01T14:50:47;2.30;;;1.20;;
30380;SDS011;17169;50.966;11.038;2022-08-01T14:56:53;1.95;;;0.98;;
30380;SDS011;17169;50.966;11.038;2022-08-01T14:59:57;3.67;;;0.80;;
30380;SDS011;17169;50.966;11.038;2022-08-01T15:03:00;1.75;;;0.85;;
30380;SDS011;17169;50.966;11.038;2022-08-01T15:06:02;1.05;;;0.80;;
30380;SDS011;17169;50.966;11.038;2022-08-01T15:09:06;1.38;;;0.80;;
30380;SDS011;17169;50.966;11.038;2022-08-01T15:12:09;1.50;;;0.95;;
30380;SDS011;17169;50.966;11.038;2022-08-01T15:15:13;1.38;;;0.82;;
30380;SDS011;17169;50.966;11.038;2022-08-01T15:18:15;5.07;;;1.17;;
30380;SDS011;17169;50.966;11.038;2022-08-01T15:21:17;1.27;;;1.00;;
30380;SDS011;17169;50.966;11.038;2022-08-01T15:24:20;1.63;;;0.90;;
30380;SDS011;17169;50.966;11.038;2022-08-01T15:27:22;1.30;;;0.73;;
30380;SDS011;17169;50.966;11.038;2022-08-01T15:30:26;0.70;;;0.70;;
30380;SDS011;17169;50.966;11.038;2022-08-01T15:33:29;2.33;;;0.80;;
30380;SDS011;17169;50.966;11.038;2022-08-01T15:36:31;2.90;;;1.27;;
30380;SDS011;17169;50.966;11.038;2022-08-01T15:39:34;3.75;;;0.88;;
30380;SDS011;17169;50.966;11.038;2022-08-01T15:42:37;2.30;;;1.05;;
30380;SDS011;17169;50.966;11.038;2022-08-01T15:45:41;1.60;;;0.93;;
30380;SDS011;17169;50.966;11.038;2022-08-01T15:51:45;0.95;;;0.70;;
30380;SDS011;17169;50.966;11.038;2022-08-01T15:54:48;5.47;;;0.90;;
30380;SDS011;17169;50.966;11.038;2022-08-01T15:57:50;1.02;;;0.80;;
30380;SDS011;17169;50.966;11.038;2022-08-01T16:00:54;0.93;;;0.65;;
30380;SDS011;17169;50.966;11.038;2022-08-01T16:03:57;1.42;;;0.80;;
30380;SDS011;17169;50.966;11.038;2022-08-01T16:07:00;1.60;;;0.90;;
30380;SDS011;17169;50.966;11.038;2022-08-01T16:10:03;1.55;;;0.82;;
30380;SDS011;17169;50.966;11.038;2022-08-01T16:13:08;4.25;;;0.98;;
30380;SDS011;17169;50.966;11.038;2022-08-01T16:16:12;1.23;;;0.80;;
30380;SDS011;17169;50.966;11.038;2022-08-01T16:19:14;1.15;;;0.80;;
30380;SDS011;17169;50.966;11.038;2022-08-01T16:22:17;3.13;;;0.80;;
30380;SDS011;17169;50.966;11.038;2022-08-01T16:25:19;1.25;;;0.77;;
30380;SDS011;17169;50.966;11.038;2022-08-01T16:28:22;2.00;;;0.90;;
30380;SDS011;17169;50.966;11.038;2022-08-01T16:31:26;0.70;;;0.60;;
30380;SDS011;17169;50.966;11.038;2022-08-01T16:34:28;2.08;;;0.88;;
30380;SDS011;17169;50.966;11.038;2022-08-01T16:37:31;2.85;;;0.70;;
30380;SDS011;17169;50.966;11.038;2022-08-01T16:40:33;2.45;;;0.55;;
30380;SDS011;17169;50.966;11.038;2022-08-01T16:43:36;2.72;;;0.77;;
30380;SDS011;17169;50.966;11.038;2022-08-01T16:46:39;3.00;;;0.60;;
30380;SDS011;17169;50.966;11.038;2022-08-01T16:49:42;0.95;;;0.70;;
30380;SDS011;17169;50.966;11.038;2022-08-01T16:52:44;1.73;;;0.90;;
30380;SDS011;17169;50.966;11.038;2022-08-01T16:55:47;0.80;;;0.70;;
30380;SDS011;17169;50.966;11.038;2022-08-01T16:58:50;1.38;;;1.02;;
30380;SDS011;17169;50.966;11.038;2022-08-01T17:01:54;2.58;;;0.60;;
30380;SDS011;17169;50.966;11.038;2022-08-01T17:04:56;1.10;;;0.63;;
30380;SDS011;17169;50.966;11.038;2022-08-01T17:07:58;1.15;;;0.70;;
30380;SDS011;17169;50.966;11.038;2022-08-01T17:11:01;0.70;;;0.50;;
30380;SDS011;17169;50.966;11.038;2022-08-01T17:14:03;1.40;;;0.68;;
30380;SDS011;17169;50.966;11.038;2022-08-01T17:17:07;1.20;;;0.90;;
30380;SDS011;17169;50.966;11.038;2022-08-01T17:20:10;1.00;;;0.50;;
30380;SDS011;17169;50.966;11.038;2022-08-01T17:23:13;2.03;;;0.70;;
30380;SDS011;17169;50.966;11.038;2022-08-01T17:26:15;0.77;;;0.70;;
30380;SDS011;17169;50.966;11.038;2022-08-01T17:29:17;2.95;;;1.10;;
30380;SDS011;17169;50.966;11.038;2022-08-01T17:32:21;1.17;;;0.70;;
30380;SDS011;17169;50.966;11.038;2022-08-01T17:35:24;1.58;;;0.80;;
30380;SDS011;17169;50.966;11.038;2022-08-01T17:38:26;1.27;;;0.88;;
30380;SDS011;17169;50.966;11.038;2022-08-01T17:41:29;3.88;;;1.35;;
30380;SDS011;17169;50.966;11.038;2022-08-01T17:44:31;2.67;;;0.60;;
30380;SDS011;17169;50.966;11.038;2022-08-01T17:47:35;3.20;;;0.77;;
30380;SDS011;17169;50.966;11.038;2022-08-01T17:50:37;1.85;;;1.23;;
30380;SDS011;17169;50.966;11.038;2022-08-01T17:53:40;1.45;;;0.93;;
30380;SDS011;17169;50.966;11.038;2022-08-01T17:56:42;2.63;;;1.20;;
30380;SDS011;17169;50.966;11.038;2022-08-01T17:59:45;2.78;;;0.90;;
30380;SDS011;17169;50.966;11.038;2022-08-01T18:02:49;1.67;;;0.70;;
30380;SDS011;17169;50.966;11.038;2022-08-01T18:05:51;1.85;;;1.05;;
30380;SDS011;17169;50.966;11.038;2022-08-01T18:08:54;2.05;;;1.00;;
30380;SDS011;17169;50.966;11.038;2022-08-01T18:11:56;1.13;;;0.82;;
30380;SDS011;17169;50.966;11.038;2022-08-01T18:14:59;0.50;;;0.50;;
30380;SDS011;17169;50.966;11.038;2022-08-01T18:18:05;1.25;;;0.70;;
30380;SDS011;17169;50.966;11.038;2022-08-01T18:21:09;1.90;;;1.13;;
30380;SDS011;17169;50.966;11.038;2022-08-01T18:24:12;3.78;;;0.60;;
30380;SDS011;17169;50.966;11.038;2022-08-01T18:27:16;1.60;;;0.98;;
30380;SDS011;17169;50.966;11.038;2022-08-01T18:30:18;2.03;;;1.00;;
30380;SDS011;17169;50.966;11.038;2022-08-01T18:33:22;1.23;;;0.80;;
30380;SDS011;17169;50.966;11.038;2022-08-01T18:36:25;1.55;;;0.90;;
30380;SDS011;17169;50.966;11.038;2022-08-01T18:39:28;2.22;;;1.05;;